Latest Weather Observations for Southern Cross Airport

IDW60801

Issued at 1:03 pm WST Sunday 25 September 2016 (issued every 30 minutes, with the page automatically refreshed every 10 minutes)

About weather observations | Map of weather stations | Latest weather observations for WA | Other Formats
Station Details ID: 012320 Name: SOUTHERN CROSS AIRFIELD Lat: -31.24 Lon: 119.36 Height: 347.4 m
Data from the previous 72 hours. | See also: Recent months at Southern Cross Airport
Date/Time
WST
Temp
°C
App
Temp
°C
Dew
Point
°C
Rel
Hum
%
Delta-T
°C
Wind Press
QNH
hPa
Press
MSL
hPa
Rain since
9am
mm
Dir  Spd
km/h
Gust
km/h
Spd
kts
Gust
kts
25/01:00pm 17.3 11.9 4.3 42 6.2 WSW 22 32 12 17 1015.4 1015.1 0.0
25/12:30pm 16.9 11.8 3.9 42 6.2 W 20 32 11 17 1015.6 1015.3 0.0
25/12:00pm 15.6 10.8 4.9 49 5.1 WSW 19 24 10 13 1016.0 1015.7 0.0
25/11:30am 15.0 9.5 4.1 48 5.1 SW 22 30 12 16 1016.0 1015.7 0.0
25/11:00am 15.2 10.1 4.3 48 5.1 SW 20 32 11 17 1016.0 1015.7 0.0
25/10:30am 15.5 11.1 4.6 48 5.2 WSW 17 24 9 13 1016.0 1015.7 0.0
25/10:00am 15.1 10.0 4.2 48 5.1 SW 20 30 11 16 1016.1 1015.8 0.0
25/09:30am 15.2 10.1 4.3 48 5.2 SW 20 30 11 16 1016.2 1015.9 0.0
25/09:00am 13.7 9.2 4.3 53 4.4 SW 17 24 9 13 1016.3 1016.0 0.0
25/08:30am 12.8 8.5 3.5 53 4.2 SW 15 20 8 11 1016.3 1016.0 0.0
25/08:00am 10.2 8.1 1.8 56 3.6 ENE 2 6 1 3 1016.2 1015.9 0.0
25/07:30am 7.2 5.3 0.6 63 2.7 CALM 0 0 0 0 1016.0 1015.7 0.0
25/07:00am 5.5 3.5 -0.1 67 2.2 CALM 0 0 0 0 1015.8 1015.5 0.0
25/06:30am 2.2 -0.1 -2.1 73 1.5 CALM 0 0 0 0 1015.5 1015.2 0.0
25/06:00am 0.3 -2.2 -3.6 75 1.3 CALM 0 0 0 0 1015.2 1014.9 0.0
25/05:30am -0.3 -2.8 -4.4 74 1.3 CALM 0 0 0 0 1015.2 1014.9 0.0
25/05:00am -0.1 -2.6 -3.8 76 1.2 CALM 0 0 0 0 1015.0 1014.7 0.0
25/04:30am 0.5 -2.0 -3.8 73 1.5 CALM 0 0 0 0 1014.4 1014.1 0.0
25/04:00am 0.2 -2.4 -5.2 67 1.8 CALM 0 0 0 0 1014.1 1013.8 0.0
25/03:30am 1.3 -1.1 -3.4 71 1.7 CALM 0 0 0 0 1014.1 1013.8 0.0
25/03:00am 1.4 -1.0 -2.9 73 1.6 CALM 0 0 0 0 1014.0 1013.7 0.0
25/02:30am 1.1 -1.4 -3.6 71 1.7 CALM 0 0 0 0 1013.9 1013.6 0.0
25/02:00am 2.3 0.0 -2.6 70 1.7 CALM 0 0 0 0 1013.9 1013.6 0.0
25/01:30am 2.5 0.1 -3.2 66 2.0 CALM 0 0 0 0 1014.0 1013.7 0.0
25/01:00am 2.9 0.5 -3.2 64 2.1 CALM 0 0 0 0 1014.0 1013.7 0.0
25/12:30am 3.4 1.1 -2.5 65 2.1 CALM 0 0 0 0 1014.2 1013.9 0.0
25/12:00am 3.7 1.4 -2.5 64 2.2 CALM 0 0 0 0 1014.4 1014.1 0.0
 
Date/Time
WST
Temp
°C
App
Temp
°C
Dew
Point
°C
Rel
Hum
%
Delta-T
°C
Wind Press
QNH
hPa
Press
MSL
hPa
Rain since
9am
mm
Dir  Spd
km/h
Gust
km/h
Spd
kts
Gust
kts
24/11:30pm 3.1 0.7 -3.0 64 2.1 CALM 0 0 0 0 1014.7 1014.3 0.0
24/11:00pm 5.1 2.1 -2.0 60 2.6 SE 4 6 2 3 1014.8 1014.5 0.0
24/10:30pm 7.4 4.0 -0.5 57 3.1 SSE 7 7 4 4 1015.1 1014.8 0.0
24/10:00pm 8.7 4.7 0.2 55 3.5 S 11 13 6 7 1015.2 1014.9 0.0
24/09:30pm 8.9 4.9 0.4 55 3.5 SSW 11 17 6 9 1015.3 1015.0 0.0
24/09:00pm 9.2 5.1 0.1 53 3.7 SSW 11 15 6 8 1015.3 1015.0 0.0
24/08:30pm 9.5 5.4 -0.4 50 4.0 SSW 11 22 6 12 1015.2 1014.9 0.0
24/08:00pm 10.3 5.7 -0.8 46 4.5 SSW 13 17 7 9 1015.1 1014.8 0.0
24/07:30pm 12.8 9.4 -0.4 40 5.5 S 7 11 4 6 1014.8 1014.5 0.0
24/07:00pm 12.7 9.3 -0.9 39 5.6 SSW 7 11 4 6 1014.5 1014.2 0.0
24/06:30pm 11.3 6.7 -1.1 42 5.0 SW 13 15 7 8 1014.2 1013.9 0.0
24/06:00pm 13.9 8.9 -1.3 35 6.3 WSW 15 20 8 11 1013.9 1013.6 0.0
24/05:30pm 15.0 9.6 -1.1 33 6.8 WSW 17 20 9 11 1013.7 1013.4 0.0
24/05:00pm 15.8 10.5 -0.8 32 7.1 W 17 26 9 14 1013.5 1013.2 0.0
24/04:30pm 16.1 10.7 -1.0 31 7.3 W 17 24 9 13 1013.4 1013.1 0.0
24/04:00pm 16.9 13.0 -1.7 28 7.9 W 9 17 5 9 1013.3 1013.0 0.0
24/03:30pm 17.1 12.4 -1.5 28 7.9 W 13 26 7 14 1013.5 1013.2 0.0
24/03:00pm 17.1 12.5 -1.1 29 7.8 WNW 13 24 7 13 1013.7 1013.4 0.0
24/02:30pm 16.6 12.3 -1.5 29 7.7 WNW 11 20 6 11 1013.6 1013.3 0.0
24/02:00pm 16.2 11.1 -2.3 28 7.7 WNW 15 24 8 13 1013.9 1013.6 0.0
24/01:30pm 16.1 11.4 -1.5 30 7.4 WSW 13 24 7 13 1014.3 1014.0 0.0
24/01:00pm 15.9 10.9 -1.2 31 7.2 NNW 15 20 8 11 1015.0 1014.7 0.0
24/12:30pm 14.7 10.1 -1.4 33 6.7 NW 13 26 7 14 1015.4 1015.1 0.0
24/12:00pm 14.2 10.4 -1.0 35 6.4 ESE 9 17 5 9 1016.0 1015.7 0.0
24/11:30am 13.1 9.3 -0.9 38 5.8 NNW 9 11 5 6 1016.4 1016.1 0.0
24/11:00am 13.3 9.7 0.7 42 5.4 NNW 9 17 5 9 1016.9 1016.6 0.0
24/10:30am 12.3 9.0 0.1 43 5.1 SSW 7 13 4 7 1017.4 1017.2 0.0
24/10:00am 10.9 6.4 -0.2 46 4.6 NW 13 22 7 12 1017.9 1017.6 0.0
24/09:30am 11.6 8.5 1.3 49 4.4 NW 7 17 4 9 1018.2 1017.9 0.0
24/09:00am 10.4 7.4 1.8 55 3.7 NNE 7 11 4 6 1018.5 1018.2 0.0
24/08:30am 9.1 5.9 3.3 67 2.5 N 9 13 5 7 1018.4 1018.1 0.0
24/08:00am 7.3 5.2 1.8 68 2.3 W 2 7 1 4 1018.4 1018.1 0.0
24/07:30am 4.1 1.9 0.8 79 1.3 SW 2 6 1 3 1018.3 1018.0 0.0
24/07:00am 1.3 -0.8 -1.1 84 0.9 CALM 0 0 0 0 1017.9 1017.6 0.0
24/06:30am -1.0 -3.4 -3.0 86 0.6 CALM 0 0 0 0 1017.4 1017.2 0.0
24/06:00am -2.5 -5.1 -4.5 86 0.5 CALM 0 0 0 0 1017.4 1017.2 0.0
24/05:30am -2.3 -4.9 -4.5 85 0.6 CALM 0 0 0 0 1017.0 1016.7 0.0
24/05:00am -1.9 -4.4 -3.9 86 0.6 CALM 0 0 0 0 1016.4 1016.1 0.0
24/04:30am -1.4 -5.2 -3.6 85 0.7 ESE 7 7 4 4 1016.3 1016.0 0.0
24/04:00am -1.1 -3.6 -3.6 83 0.8 CALM 0 0 0 0 1016.2 1015.9 0.0
24/03:30am -0.8 -3.3 -3.6 81 0.9 CALM 0 0 0 0 1016.1 1015.8 0.0
24/03:00am 0.9 -1.3 -1.7 83 1.0 CALM 0 0 0 0 1015.8 1015.5 0.0
24/02:30am 0.1 -3.0 -2.4 83 0.9 ESE 4 7 2 4 1015.9 1015.6 0.0
24/02:00am 1.1 -1.1 -1.6 82 1.0 CALM 0 0 0 0 1015.8 1015.5 0.0
24/01:30am 1.5 -0.7 -1.2 82 1.0 CALM 0 0 0 0 1015.7 1015.4 0.0
24/01:00am 1.2 -1.0 -1.9 80 1.1 CALM 0 0 0 0 1015.8 1015.5 0.0
24/12:30am 3.0 0.2 -0.6 77 1.3 SSW 4 7 2 4 1015.9 1015.6 0.0
24/12:00am 4.7 1.1 0.8 76 1.5 SSW 9 11 5 6 1016.0 1015.7 0.0
 
Date/Time
WST
Temp
°C
App
Temp
°C
Dew
Point
°C
Rel
Hum
%
Delta-T
°C
Wind Press
QNH
hPa
Press
MSL
hPa
Rain since
9am
mm
Dir  Spd
km/h
Gust
km/h
Spd
kts
Gust
kts
23/11:30pm 4.3 0.7 0.3 75 1.6 SSW 9 13 5 7 1016.0 1015.7 0.0
23/11:00pm 6.0 2.1 1.3 72 1.9 SSW 11 13 6 7 1016.3 1016.0 0.0
23/10:30pm 6.8 2.5 1.3 68 2.3 S 13 17 7 9 1016.4 1016.1 0.0
23/10:00pm 7.1 3.3 1.8 69 2.2 SSW 11 15 6 8 1016.4 1016.1 0.0
23/09:30pm 6.2 2.2 0.5 67 2.3 WSW 11 17 6 9 1016.3 1016.0 0.0
23/09:00pm 6.7 3.1 0.6 65 2.5 WSW 9 11 5 6 1016.1 1015.8 0.0
23/08:30pm 7.1 3.1 0.5 63 2.7 WSW 11 13 6 7 1015.9 1015.6 0.0
23/08:00pm 8.6 4.7 1.3 60 3.0 WSW 11 15 6 8 1015.7 1015.4 0.0
23/07:30pm 8.4 4.5 1.1 60 3.0 WSW 11 13 6 7 1015.4 1015.1 0.0
23/07:00pm 9.1 5.2 1.3 58 3.3 WSW 11 15 6 8 1014.9 1014.6 0.0
23/06:30pm 10.9 6.3 1.4 52 4.1 WSW 15 20 8 11 1014.3 1014.0 0.0
23/06:00pm 11.7 6.7 1.4 49 4.4 WSW 17 20 9 11 1013.9 1013.6 0.0
23/05:30pm 12.6 5.4 0.7 44 5.1 SW 28 37 15 20 1013.7 1013.4 0.0
23/05:00pm 13.1 6.8 1.5 45 5.1 SW 24 33 13 18 1013.4 1013.1 0.0
23/04:30pm 13.6 7.7 1.6 44 5.3 SW 22 32 12 17 1012.9 1012.6 0.0
23/04:00pm 14.3 7.6 1.2 41 5.8 SW 26 35 14 19 1012.7 1012.4 0.0
23/03:30pm 14.9 8.8 0.7 38 6.2 SW 22 32 12 17 1012.4 1012.1 0.0
23/03:00pm 14.5 7.6 0.4 38 6.1 WSW 26 37 14 20 1012.3 1012.0 0.0
23/02:30pm 14.3 6.5 -0.5 36 6.3 SW 30 41 16 22 1012.1 1011.7 0.0
23/02:00pm 14.9 7.9 -0.4 35 6.5 WSW 26 37 14 20 1012.1 1011.7 0.0
23/01:30pm 14.6 7.2 -0.7 35 6.5 WSW 28 41 15 22 1012.4 1012.1 0.0
23/01:00pm 14.0 6.3 -0.4 37 6.1 WSW 30 43 16 23 1012.6 1012.3 0.0
23/12:30pm 13.8 5.8 0.5 40 5.7 WSW 32 43 17 23 1012.8 1012.5 0.0
23/12:00pm 13.7 6.5 0.7 41 5.6 WSW 28 39 15 21 1013.1 1012.8 0.0
23/11:30am 14.0 7.0 2.0 44 5.3 WSW 28 35 15 19 1013.3 1013.0 0.0
23/11:00am 13.2 5.7 1.2 44 5.2 WSW 30 43 16 23 1013.5 1013.2 0.0
23/10:30am 12.1 4.3 1.7 49 4.5 SW 32 44 17 24 1013.8 1013.5 0.0
23/10:00am 12.1 4.3 2.8 53 4.1 WSW 33 44 18 24 1013.8 1013.5 0.0
23/09:30am 11.8 5.1 3.6 57 3.7 WSW 28 41 15 22 1014.0 1013.7 0.0
23/09:00am 10.5 3.8 3.8 63 3.0 WSW 28 39 15 21 1014.0 1013.7 0.6
23/08:30am 10.5 4.5 5.1 69 2.5 WSW 26 33 14 18 1013.8 1013.5 0.6
23/08:00am 9.9 5.5 6.4 79 1.7 WSW 19 28 10 15 1013.7 1013.4 0.6
23/07:30am 8.8 4.5 6.9 88 0.9 WSW 19 28 10 15 1013.7 1013.4 0.6
23/07:00am 7.8 5.3 6.7 93 0.5 WSW 9 15 5 8 1013.3 1013.0 0.6
23/06:30am 6.2 4.0 5.2 93 0.4 W 6 7 3 4 1013.0 1012.7 0.6
23/06:00am 6.2 3.9 5.0 92 0.5 WNW 6 7 3 4 1012.6 1012.3 0.6
23/05:30am 6.7 4.0 5.5 92 0.5 W 9 11 5 6 1012.4 1012.1 0.6
23/05:00am 6.8 3.7 5.6 92 0.5 WSW 11 17 6 9 1011.9 1011.5 0.6
23/04:30am 6.5 3.7 5.3 92 0.5 W 9 13 5 7 1011.6 1011.2 0.6
23/04:00am 6.5 2.9 5.1 91 0.6 WSW 13 17 7 9 1011.4 1011.1 0.6
23/03:30am 6.8 3.6 5.3 90 0.7 WSW 11 15 6 8 1011.2 1010.9 0.6
23/03:00am 7.2 3.3 5.5 89 0.8 WSW 15 20 8 11 1011.1 1010.8 0.6
23/02:30am 7.2 3.7 5.3 88 0.9 WSW 13 19 7 10 1011.0 1010.7 0.6
23/02:00am 7.5 3.6 5.5 87 0.9 WSW 15 20 8 11 1010.9 1010.6 0.6
23/01:30am 7.7 3.8 5.5 86 1.0 WSW 15 20 8 11 1011.0 1010.7 0.6
23/01:00am 7.9 4.2 6.2 89 0.8 WSW 15 20 8 11 1011.1 1010.8 0.6
23/12:30am 8.3 4.6 6.4 88 0.9 SW 15 20 8 11 1011.2 1010.9 0.6
23/12:00am 9.1 4.8 6.9 86 1.1 WSW 19 24 10 13 1011.3 1011.0 0.6
 
Date/Time
WST
Temp
°C
App
Temp
°C
Dew
Point
°C
Rel
Hum
%
Delta-T
°C
Wind Press
QNH
hPa
Press
MSL
hPa
Rain since
9am
mm
Dir  Spd
km/h
Gust
km/h
Spd
kts
Gust
kts
22/11:30pm 9.8 4.6 7.2 84 1.3 SW 24 32 13 17 1011.7 1011.3 0.6
22/11:00pm 10.3 6.3 8.1 86 1.1 WSW 19 26 10 14 1012.0 1011.6 0.6
22/10:30pm 11.3 7.3 8.9 85 1.2 WSW 20 33 11 18 1012.0 1011.6 0.6
22/10:00pm 11.7 6.3 9.6 87 1.1 SW 28 41 15 22 1011.8 1011.4 0.6
22/09:48pm 12.5 8.7 11.1 91 0.7 SW 22 44 12 24 1011.7 1011.3 0.4
22/09:30pm 12.8 9.7 11.5 92 0.7 WSW 19 24 10 13 1011.7 1011.3 0.2
22/09:00pm 12.9 10.8 11.1 89 1.0 W 13 19 7 10 1011.7 1011.3 0.2
22/08:30pm 12.9 10.7 10.8 87 1.1 WSW 13 17 7 9 1011.8 1011.4 0.0
22/08:00pm 13.3 10.5 9.9 80 1.8 SW 15 20 8 11 1011.6 1011.2 0.0
22/07:30pm 13.7 9.4 9.4 75 2.2 SW 22 28 12 15 1011.4 1011.1 0.0
22/07:00pm 14.7 11.2 8.6 67 3.1 SSW 17 24 9 13 1010.8 1010.5 0.0
22/06:30pm 15.4 10.8 6.7 56 4.3 SW 20 28 11 15 1010.6 1010.3 0.0
22/06:00pm 15.8 9.7 6.8 55 4.5 SW 28 41 15 22 1010.3 1010.0 0.0
22/05:30pm 16.6 8.5 7.0 53 4.8 SW 39 52 21 28 1010.0 1009.7 0.0
22/05:06pm 17.5 8.9 8.1 54 4.9 SSW 43 61 23 33 1009.7 1009.3 0.0
22/05:00pm 17.8 8.2 7.8 52 5.2 SW 48 65 26 35 1009.4 1009.0 0.0
22/04:59pm 18.1 8.9 7.8 51 5.3 SW 46 65 25 35 1009.3 1008.9 0.0
22/04:53pm 19.0 10.5 6.8 45 6.2 WSW 41 65 22 35 1009.0 1008.6 0.0
22/04:50pm 21.1 13.4 3.3 31 8.6 WSW 33 56 18 30 1008.7 1008.3 0.0
22/04:30pm 22.5 14.5 0.4 23 10.2 W 32 48 17 26 1008.3 1008.0 0.0
22/04:06pm 23.1 15.1 -2.5 18 11.3 W 30 57 16 31 1008.0 1007.7 0.0
22/04:00pm 23.4 15.4 -2.2 18 11.4 W 30 43 16 23 1008.0 1007.7 0.0
22/03:33pm 24.1 16.8 -0.2 20 11.3 W 28 46 15 25 1007.8 1007.5 0.0
22/03:30pm 24.0 15.8 -1.0 19 11.4 W 32 46 17 25 1007.9 1007.6 0.0
22/03:00pm 24.0 16.5 1.0 22 10.9 WNW 30 56 16 30 1007.7 1007.4 0.0
22/02:31pm 23.7 16.4 0.1 21 11.0 WSW 28 48 15 26 1007.7 1007.4 0.0
22/02:30pm 23.7 16.4 0.1 21 11.0 WSW 28 39 15 21 1007.8 1007.5 0.0
22/02:00pm 24.5 17.7 0.8 21 11.2 W 26 39 14 21 1007.9 1007.6 0.0
22/01:30pm 24.3 16.1 -0.8 19 11.5 WNW 32 50 17 27 1008.0 1007.7 0.0
22/01:23pm 24.7 17.5 0.9 21 11.3 WNW 28 48 15 26 1008.1 1007.8 0.0

Other Formats:

Comma delimited format used in spreadsheet applications
http://www.bom.gov.au/fwo/IDW60801/IDW60801.95634.axf

JavaScript Object Notation format (JSON) in row-major order
http://www.bom.gov.au/fwo/IDW60801/IDW60801.95634.json